Accueil
METAR-TAF:

METAR-TAF

Aéroports :

Wanaham

Lifou, Nouvelle-Calédonie

latitude: 20-46S, longitude: 167-14E, altitude: 28 m

METAR: absent

Heure: 09:34 (22:34 UTC)

Prévision

Le bulletin a été fait il y a 5 heures et 34 minutes, à 17:00 UTC
Prévision valable du 17 à 18 UTC au 18 à 18 UTC
Vent 2 kt de direction variable
Visibilité 10 km ou plus
Quelques nuages à une hauteur de 3000 ft
Evoluant progressivement
du 17 à 23 UTC au 18 à 01 UTC
Vent 10 kt de ouest
Evoluant progressivement
du 18 à 06 UTC au 18 à 08 UTC
Vent 2 kt de direction variable

TAF: NWWL 171700Z 1718/1818 VRB02KT 9999 FEW030 BECMG 1723/1801 27010KT BECMG 1806/1808 VRB02KT

Observations et prévisions météorologiques de plus de 4000 aéroports (messages METAR et TAF).

Les stations disponibles sont représentées par des disques jaunes et rouges sur la carte.

Passer la souris dessus pour voir le nom de la station.

Cliquer dessus pour voir les observations et prévisions météorologiques.

Pour changer de carte: cliquez sur les boutons verts avec une croix noire pour zoomer, sur le bouton vert avec un tiret pour effectuer un zoom arrière, ou sur les flèches vertes pour les cartes adjacentes.


METAR-TAF: